Time;durP1;ratioP1;P1;durP2;ratioP2;P2;SDS_P1;SDS_P2;PMS_P1;PMS_P2;Temp;Humidity;BMP_temperature;BMP_pressure;BME280_temperature;BME280_humidity;BME280_pressure;Samples;Min_cycle;Max_cycle;Signal;HPM_P1;HPM_P2
2023/03/26 00:01:55;;;;;;;2.95;1.08;;;6.10;99.90;;;5.44;100.00;96764.50;5007120;28;20513;-38
2023/03/26 00:04:24;;;;;;;2.03;1.02;;;6.10;99.90;;;5.37;100.00;96755.97;5012140;28;20026;-37
2023/03/26 00:06:50;;;;;;;5.47;1.20;;;6.00;99.90;;;5.32;100.00;96760.44;5008861;28;20095;-38
2023/03/26 00:09:16;;;;;;;2.53;1.02;;;6.00;99.90;;;5.25;100.00;96766.75;5015886;28;20056;-38
2023/03/26 00:11:44;;;;;;;2.78;1.20;;;5.90;99.90;;;5.18;100.00;96768.66;5010143;28;20148;-38
2023/03/26 00:14:12;;;;;;;5.03;1.17;;;5.90;99.90;;;5.13;100.00;96758.31;5014403;28;20036;-38
2023/03/26 00:16:40;;;;;;;4.13;0.90;;;5.90;99.90;;;5.10;100.00;96761.00;5013950;28;20029;-38
2023/03/26 00:19:07;;;;;;;3.47;1.00;;;5.80;99.90;;;5.08;100.00;96762.81;5014328;28;20032;-38
2023/03/26 00:21:33;;;;;;;4.47;1.10;;;5.80;99.90;;;5.06;100.00;96763.72;5011290;28;20041;-38
2023/03/26 00:24:03;;;;;;;2.45;1.10;;;5.70;99.90;;;5.02;100.00;96747.25;5008165;28;20088;-37
2023/03/26 00:26:33;;;;;;;4.38;1.33;;;5.80;99.90;;;5.07;100.00;96755.84;5008966;28;20041;-37
2023/03/26 00:28:59;;;;;;;3.55;1.15;;;5.80;99.90;;;5.08;100.00;96752.34;5007298;28;20584;-37
2023/03/26 00:31:25;;;;;;;5.13;1.00;;;5.80;99.90;;;5.09;100.00;96754.06;5007965;28;20037;-37
2023/03/26 00:33:54;;;;;;;3.15;1.00;;;5.80;99.90;;;5.11;100.00;96761.84;5006161;28;20445;-37
2023/03/26 00:36:24;;;;;;;7.38;1.10;;;5.80;99.90;;;5.10;100.00;96755.78;5013032;28;20063;-37
2023/03/26 00:38:51;;;;;;;5.72;1.48;;;5.80;99.90;;;5.10;100.00;96760.16;5014346;28;20032;-38
2023/03/26 00:41:24;;;;;;;5.10;1.38;;;5.80;99.90;;;5.11;100.00;96767.09;5015745;28;20068;-38
2023/03/26 00:43:57;;;;;;;4.38;1.38;;;5.80;99.90;;;5.10;100.00;96750.56;5016018;28;20025;-37
2023/03/26 00:46:26;;;;;;;2.83;1.00;;;5.80;99.90;;;5.13;100.00;96758.31;5014615;28;20385;-38
2023/03/26 00:48:52;;;;;;;3.20;1.52;;;5.90;99.90;;;5.14;100.00;96741.72;5013467;28;20021;-38
2023/03/26 00:51:19;;;;;;;4.10;1.17;;;5.90;99.90;;;5.17;100.00;96743.41;5017287;28;20036;-35
2023/03/26 00:53:47;;;;;;;8.55;1.50;;;5.90;99.90;;;5.23;100.00;96745.00;5012428;28;20036;-36
2023/03/26 00:56:13;;;;;;;2.17;0.95;;;5.90;99.90;;;5.31;100.00;96737.81;5016784;28;20052;-36
2023/03/26 00:58:39;;;;;;;4.45;1.27;;;6.00;99.90;;;5.35;100.00;96736.84;5012291;28;20470;-37
2023/03/26 01:01:12;;;;;;;3.97;1.10;;;6.00;99.90;;;5.39;100.00;96724.56;5008245;28;20175;-37
2023/03/26 01:03:39;;;;;;;3.00;1.08;;;6.10;99.90;;;5.33;100.00;96710.75;5009213;28;20041;-37
2023/03/26 01:06:16;;;;;;;3.50;1.27;;;6.10;99.90;;;5.38;100.00;96710.59;5005535;28;20102;-38
2023/03/26 01:08:50;;;;;;;2.67;1.00;;;6.10;99.90;;;5.36;100.00;96712.41;4997111;28;20033;-38
2023/03/26 01:11:26;;;;;;;5.57;1.10;;;6.10;99.90;;;5.37;100.00;96710.66;5013483;28;20288;-38
2023/03/26 01:14:06;;;;;;;3.38;1.10;;;6.10;99.90;;;5.36;100.00;96707.16;4988066;28;20332;-38
2023/03/26 01:16:48;;;;;;;4.20;1.10;;;6.10;99.90;;;5.35;100.00;96710.69;4995222;28;20039;-36
2023/03/26 01:19:20;;;;;;;;;;;6.10;99.90;;;5.35;100.00;96708.09;5014321;28;20468;-36
2023/03/26 01:21:46;;;;;;;2.47;0.90;;;6.10;99.90;;;5.38;100.00;96697.53;5013510;28;19921;-37
2023/03/26 01:24:12;;;;;;;3.53;1.02;;;6.10;99.90;;;5.34;100.00;96686.28;5014144;28;20037;-36
2023/03/26 01:26:52;;;;;;;4.70;1.50;;;6.10;99.90;;;5.41;100.00;96683.53;5014722;28;20095;-37
2023/03/26 01:29:36;;;;;;;2.15;0.93;;;6.10;99.90;;;5.38;100.00;96673.13;4988638;28;20650;-37
2023/03/26 01:32:32;;;;;;;4.35;1.15;;;6.10;99.90;;;5.45;100.00;96680.75;5013055;28;20036;-36
2023/03/26 01:35:21;;;;;;;3.10;1.23;;;6.10;99.90;;;5.48;100.00;96679.84;5013938;28;20041;-37
2023/03/26 01:38:09;;;;;;;4.43;1.00;;;6.10;99.90;;;5.53;100.00;96676.19;5016362;28;20247;-36
2023/03/26 01:40:48;;;;;;;4.32;1.30;;;6.20;99.90;;;5.51;100.00;96661.44;4994601;28;20132;-37
2023/03/26 01:43:45;;;;;;;4.45;1.05;;;6.20;99.90;;;5.58;100.00;96663.00;5011385;28;20564;-36
2023/03/26 01:46:14;;;;;;;4.55;1.10;;;6.20;99.90;;;5.59;100.00;96661.22;4998186;28;20504;-37
2023/03/26 01:48:42;;;;;;;5.20;1.05;;;6.30;99.90;;;5.57;100.00;96647.34;5015727;28;20034;-37
2023/03/26 01:51:11;;;;;;;2.85;0.98;;;6.30;99.90;;;5.58;100.00;96649.03;4998878;28;20091;-37
2023/03/26 01:53:43;;;;;;;3.55;1.00;;;6.30;99.90;;;5.59;100.00;96658.59;5017233;28;20033;-37
2023/03/26 01:56:41;;;;;;;2.42;1.00;;;6.30;99.90;;;5.59;100.00;96638.53;5016170;28;20029;-38
2023/03/26 01:59:37;;;;;;;4.60;0.90;;;6.20;99.90;;;5.59;100.00;96640.28;5017408;28;20124;-38
2023/03/26 02:02:37;;;;;;;5.65;1.52;;;6.20;99.90;;;5.62;100.00;96619.28;5012334;28;20746;-36
2023/03/26 02:05:41;;;;;;;3.67;1.10;;;6.30;99.90;;;5.68;100.00;96627.78;4997647;28;20037;-36
2023/03/26 02:08:21;;;;;;;6.07;1.02;;;6.30;99.90;;;5.72;100.00;96612.84;5016748;28;20516;-37
2023/03/26 02:10:56;;;;;;;2.58;0.90;;;6.30;99.90;;;5.73;100.00;96610.19;5013390;22;20101;-37
2023/03/26 02:13:23;;;;;;;2.28;0.85;;;6.40;99.90;;;5.72;100.00;96602.38;4978788;28;20087;-36
2023/03/26 02:15:59;;;;;;;2.13;0.93;;;6.40;99.90;;;5.72;100.00;96591.91;4990531;28;20076;-36
2023/03/26 02:18:35;;;;;;;2.97;0.77;;;6.40;99.90;;;5.69;100.00;96600.75;4997042;28;20025;-36
2023/03/26 02:21:05;;;;;;;2.55;0.90;;;6.40;99.90;;;5.69;100.00;96589.44;4990477;28;20030;-36
2023/03/26 02:23:34;;;;;;;3.40;1.25;;;6.40;99.90;;;5.70;100.00;96594.59;4969015;28;20037;-36
2023/03/26 02:26:04;;;;;;;3.85;1.15;;;6.40;99.90;;;5.71;100.00;96585.00;4973588;28;20030;-36
2023/03/26 02:28:30;;;;;;;3.42;1.02;;;6.40;99.90;;;5.73;100.00;96576.19;4977304;28;20483;-36
2023/03/26 02:30:56;;;;;;;3.33;0.80;;;6.40;99.90;;;5.74;100.00;96571.78;4976035;28;20045;-36
2023/03/26 02:33:22;;;;;;;2.75;0.90;;;6.40;99.90;;;5.73;100.00;96570.94;4976997;28;20509;-37
2023/03/26 02:35:48;;;;;;;5.00;1.13;;;6.40;99.90;;;5.74;100.00;96580.53;4979020;28;20065;-36
2023/03/26 02:38:14;;;;;;;6.47;1.20;;;6.40;99.90;;;5.79;100.00;96582.97;4978471;28;20064;-36
2023/03/26 02:40:40;;;;;;;4.18;1.00;;;6.40;99.90;;;5.79;100.00;96576.91;4969707;28;20162;-36
2023/03/26 02:43:07;;;;;;;4.97;1.30;;;6.40;99.90;;;5.79;100.00;96577.75;4977505;28;20031;-37
2023/03/26 02:45:33;;;;;;;4.70;1.10;;;6.50;99.90;;;5.79;100.00;96571.66;4969790;28;20108;-37
2023/03/26 02:47:59;;;;;;;5.88;1.17;;;6.50;99.90;;;5.77;100.00;96565.63;4973955;28;20026;-36
2023/03/26 02:50:25;;;;;;;6.10;1.33;;;6.40;99.90;;;5.78;100.00;96569.94;4977368;28;20141;-36
2023/03/26 02:52:52;;;;;;;5.25;1.10;;;6.40;99.90;;;5.76;100.00;96566.53;4977897;28;20104;-37
2023/03/26 02:55:18;;;;;;;5.90;1.25;;;6.40;99.90;;;5.74;100.00;96575.28;4978133;28;20374;-36
2023/03/26 02:57:43;;;;;;;7.75;1.20;;;6.40;99.90;;;5.72;100.00;96569.25;4971359;28;20435;-36
2023/03/26 03:00:12;;;;;;;7.15;1.38;;;6.40;99.90;;;5.70;100.00;96557.97;4976740;28;20142;-36
2023/03/26 03:02:38;;;;;;;5.57;1.40;;;6.40;99.90;;;5.66;100.00;96555.50;4972895;28;20058;-36
2023/03/26 03:05:04;;;;;;;6.22;1.00;;;6.30;99.90;;;5.65;100.00;96546.81;4979285;28;20034;-36
2023/03/26 03:07:30;;;;;;;4.13;1.00;;;6.30;99.90;;;5.63;100.00;96542.50;4972922;28;20038;-36
2023/03/26 03:10:02;;;;;;;8.23;1.30;;;6.30;99.90;;;5.66;100.00;96534.56;4979975;28;20038;-36
2023/03/26 03:12:27;;;;;;;7.00;1.40;;;6.40;99.90;;;5.72;100.00;96526.53;4975798;28;20042;-36
2023/03/26 03:14:53;;;;;;;4.28;1.10;;;6.40;99.90;;;5.78;100.00;96523.72;4974879;28;20045;-36
2023/03/26 03:17:19;;;;;;;7.30;1.30;;;6.40;99.90;;;5.83;100.00;96518.34;4975303;28;20074;-36
2023/03/26 03:19:45;;;;;;;4.93;1.30;;;6.50;99.90;;;5.82;100.00;96514.03;4977149;28;20034;-36
2023/03/26 03:22:11;;;;;;;6.97;1.33;;;6.60;99.90;;;5.90;100.00;96515.50;4972738;28;20109;-35
2023/03/26 03:24:37;;;;;;;7.65;1.13;;;6.60;99.90;;;5.92;100.00;96505.81;4976430;28;20049;-36
2023/03/26 03:27:03;;;;;;;2.47;0.77;;;6.60;99.90;;;5.97;100.00;96503.06;4978071;28;20107;-35
2023/03/26 03:29:29;;;;;;;6.38;1.38;;;6.60;99.90;;;6.00;100.00;96502.13;4977882;28;20096;-36
2023/03/26 03:31:55;;;;;;;4.28;1.00;;;6.60;99.90;;;6.00;100.00;96489.88;4964993;28;20390;-35
2023/03/26 03:34:21;;;;;;;3.42;1.05;;;6.70;99.90;;;6.02;100.00;96489.84;4970996;28;20030;-35
2023/03/26 03:36:47;;;;;;;4.47;0.90;;;6.70;99.90;;;6.03;100.00;96483.69;4970902;28;20475;-35
2023/03/26 03:39:13;;;;;;;3.75;1.35;;;6.70;99.90;;;6.05;100.00;96477.50;4977463;28;20137;-35
2023/03/26 03:41:39;;;;;;;5.78;1.05;;;6.70;99.90;;;6.03;100.00;96465.34;4971243;28;20097;-35
2023/03/26 03:44:05;;;;;;;4.20;0.95;;;6.70;99.90;;;6.08;100.00;96479.16;4967724;28;20259;-35
2023/03/26 03:46:31;;;;;;;4.32;1.15;;;6.70;99.90;;;6.09;100.00;96476.50;4971664;28;20045;-36
2023/03/26 03:48:57;;;;;;;7.30;1.25;;;6.70;99.90;;;6.07;100.00;96467.00;4972717;28;20026;-35
2023/03/26 03:51:23;;;;;;;6.00;1.70;;;6.80;99.90;;;6.19;100.00;96465.69;4973766;28;20030;-35
2023/03/26 03:53:49;;;;;;;7.93;1.45;;;6.80;99.90;;;6.20;100.00;96473.50;4973485;28;20076;-35
2023/03/26 03:56:17;;;;;;;3.78;1.08;;;6.80;99.90;;;6.22;100.00;96470.84;4976634;28;20072;-36
2023/03/26 03:58:45;;;;;;;4.40;1.10;;;6.90;99.90;;;6.21;100.00;96470.00;4971021;28;20034;-36
2023/03/26 04:01:12;;;;;;;5.63;1.40;;;6.90;99.90;;;6.20;100.00;96457.78;4954640;28;20143;-36
2023/03/26 04:03:38;;;;;;;3.60;1.00;;;6.90;99.90;;;6.28;100.00;96463.63;4969942;28;20121;-36
2023/03/26 04:06:09;;;;;;;5.18;1.25;;;6.90;99.90;;;6.29;100.00;96454.84;4972661;28;20030;-36
2023/03/26 04:08:35;;;;;;;3.50;1.10;;;6.90;99.90;;;6.31;100.00;96452.19;4971272;28;20026;-37
2023/03/26 04:11:01;;;;;;;3.10;1.10;;;7.00;99.90;;;6.34;100.00;96452.09;4973836;28;20034;-36
2023/03/26 04:13:27;;;;;;;3.38;1.00;;;7.00;99.90;;;6.36;100.00;96457.28;4962869;28;20034;-36
2023/03/26 04:15:53;;;;;;;4.10;1.05;;;7.00;99.90;;;6.36;100.00;96449.41;4966384;28;20050;-36
2023/03/26 04:18:19;;;;;;;4.75;1.20;;;7.00;99.90;;;6.34;100.00;96441.59;4971192;28;20549;-36
2023/03/26 04:20:45;;;;;;;3.05;1.13;;;7.00;99.90;;;6.33;100.00;96424.19;4968724;28;20658;-36
2023/03/26 04:23:16;;;;;;;6.38;1.10;;;7.00;99.90;;;6.35;100.00;96431.97;4967023;28;20064;-36
2023/03/26 04:25:52;;;;;;;3.03;1.02;;;7.00;99.90;;;6.34;100.00;96425.06;4957610;28;20058;-36
2023/03/26 04:28:55;;;;;;;4.03;1.50;;;7.00;99.90;;;6.39;100.00;96416.13;4967465;28;20117;-37
2023/03/26 04:31:27;;;;;;;7.55;1.48;;;7.00;99.90;;;6.40;100.00;96416.97;4964014;28;20042;-36
2023/03/26 04:33:55;;;;;;;9.32;1.80;;;7.00;99.90;;;6.40;100.00;96411.72;4965846;28;20038;-36
2023/03/26 04:36:30;;;;;;;5.22;1.00;;;7.00;99.90;;;6.41;100.00;96400.34;4954364;28;20097;-36
2023/03/26 04:39:04;;;;;;;5.25;1.30;;;7.00;99.90;;;6.44;100.00;96400.22;4969970;28;20039;-37
2023/03/26 04:41:31;;;;;;;8.10;1.52;;;7.10;99.90;;;6.48;100.00;96389.59;4967648;28;20034;-37
2023/03/26 04:44:00;;;;;;;6.75;1.45;;;7.10;99.90;;;6.51;100.00;96378.13;4966884;28;20482;-36
2023/03/26 04:46:26;;;;;;;2.63;0.95;;;7.10;99.90;;;6.54;100.00;96380.66;4970075;28;20122;-37
2023/03/26 04:48:53;;;;;;;5.00;1.13;;;7.20;99.90;;;6.56;100.00;96378.81;4967697;28;20032;-37
2023/03/26 04:51:24;;;;;;;10.32;1.77;;;7.20;99.90;;;6.58;100.00;96360.44;4969803;28;20034;-37
2023/03/26 04:53:58;;;;;;;7.97;1.52;;;7.20;99.90;;;6.58;100.00;96353.41;4969049;28;20031;-37
2023/03/26 04:57:04;;;;;;;7.03;1.70;;;7.20;99.90;;;6.59;100.00;96364.78;4971053;28;20034;-36
2023/03/26 04:59:34;;;;;;;5.03;1.30;;;7.20;99.90;;;6.58;100.00;96352.56;4969667;28;20066;-37
2023/03/26 05:02:05;;;;;;;4.75;1.20;;;7.20;99.90;;;6.63;100.00;96361.97;4974929;28;20335;-37
2023/03/26 05:04:33;;;;;;;8.65;1.42;;;7.30;99.90;;;6.61;100.00;96360.31;4965237;28;20027;-37
2023/03/26 05:06:59;;;;;;;6.28;1.20;;;7.30;99.90;;;6.71;100.00;96358.19;4970649;28;20038;-37
2023/03/26 05:09:26;;;;;;;5.50;1.40;;;7.30;99.90;;;6.70;100.00;96362.59;4968177;28;20101;-37
2023/03/26 05:11:52;;;;;;;5.18;1.38;;;7.30;99.90;;;6.75;100.00;96359.78;4971952;28;20038;-37
2023/03/26 05:14:18;;;;;;;6.28;1.25;;;7.30;99.90;;;6.77;100.00;96373.69;4979307;28;20486;-37
2023/03/26 05:16:46;;;;;;;5.55;1.55;;;7.40;99.90;;;6.77;100.00;96357.97;4974625;28;20045;-37
2023/03/26 05:19:12;;;;;;;7.85;1.52;;;7.40;99.90;;;6.79;100.00;96358.75;4975575;28;20022;-37
2023/03/26 05:21:38;;;;;;;6.82;1.20;;;7.40;99.90;;;6.80;100.00;96350.84;4976531;28;20125;-37
2023/03/26 05:24:05;;;;;;;6.15;1.40;;;7.40;99.90;;;6.84;100.00;96346.34;4978356;28;20414;-37
2023/03/26 05:26:32;;;;;;;7.55;1.23;;;7.40;99.90;;;6.83;100.00;96334.13;4975907;28;20041;-37
2023/03/26 05:28:57;;;;;;;4.93;1.17;;;7.50;99.90;;;6.83;100.00;96329.75;4973768;28;20034;-37
2023/03/26 05:31:25;;;;;;;5.90;1.40;;;7.50;99.90;;;6.82;100.00;96317.56;4976175;28;20062;-37
2023/03/26 05:33:51;;;;;;;2.35;0.88;;;7.50;99.90;;;6.79;100.00;96303.75;4959042;28;20121;-36
2023/03/26 05:36:17;;;;;;;3.90;1.23;;;7.50;99.90;;;6.85;100.00;96311.34;4972497;28;20088;-37
2023/03/26 05:38:48;;;;;;;9.57;1.48;;;7.50;99.90;;;6.86;100.00;96310.44;4974114;28;20113;-37
2023/03/26 05:41:15;;;;;;;3.47;1.17;;;7.50;99.90;;;6.84;100.00;96312.28;4977322;28;20038;-37
2023/03/26 05:43:42;;;;;;;4.70;1.17;;;7.50;99.90;;;6.90;100.00;96316.41;4971990;28;20035;-37
2023/03/26 05:46:08;;;;;;;5.93;1.40;;;7.50;99.90;;;6.87;100.00;96302.53;4972597;28;20466;-37
2023/03/26 05:48:34;;;;;;;7.20;1.40;;;7.50;99.90;;;6.87;100.00;96309.50;4969161;28;20061;-37
2023/03/26 05:51:00;;;;;;;4.10;1.20;;;7.50;99.90;;;6.90;100.00;96300.69;4968391;28;20034;-37
2023/03/26 05:53:26;;;;;;;5.13;1.42;;;7.50;99.90;;;6.91;100.00;96302.38;4971359;28;20074;-37
2023/03/26 05:55:58;;;;;;;5.20;1.15;;;7.50;99.90;;;6.92;100.00;96289.22;4967418;28;20050;-37
2023/03/26 05:58:27;;;;;;;8.15;1.40;;;7.50;99.90;;;6.93;100.00;96290.06;4967874;28;20117;-37
2023/03/26 06:00:59;;;;;;;3.30;1.13;;;7.60;99.90;;;6.95;100.00;96276.00;4969399;28;20034;-37
2023/03/26 06:03:25;;;;;;;2.77;1.10;;;7.60;99.90;;;6.97;100.00;96265.47;4976877;28;20266;-37
2023/03/26 06:05:51;;;;;;;10.60;1.40;;;7.60;99.90;;;6.98;100.00;96267.16;4969878;28;20361;-37
2023/03/26 06:08:18;;;;;;;8.73;1.40;;;7.60;99.90;;;6.97;100.00;96255.81;4955298;28;20409;-36
2023/03/26 06:10:44;;;;;;;4.88;1.15;;;7.60;99.90;;;6.97;100.00;96249.72;4974202;28;20555;-37
2023/03/26 06:13:10;;;;;;;4.55;1.30;;;7.60;99.90;;;6.95;100.00;96254.19;4977969;28;20037;-37
2023/03/26 06:15:36;;;;;;;6.97;1.40;;;7.60;99.90;;;6.89;100.00;96242.16;4974732;28;20034;-37
2023/03/26 06:18:02;;;;;;;4.20;1.60;;;7.60;99.90;;;6.93;100.00;96233.28;4972890;28;20041;-37
2023/03/26 06:20:28;;;;;;;4.72;1.13;;;7.60;99.90;;;6.97;100.00;96234.84;4979119;28;20045;-37
2023/03/26 06:22:54;;;;;;;4.25;1.38;;;7.60;99.90;;;6.97;100.00;96229.59;4979214;28;20378;-37
2023/03/26 06:25:20;;;;;;;5.00;1.35;;;7.60;99.90;;;7.01;100.00;96225.09;4952652;28;20033;-36
2023/03/26 06:27:45;;;;;;;4.43;1.15;;;7.60;99.90;;;7.03;100.00;96223.25;4969436;28;20064;-37
2023/03/26 06:30:11;;;;;;;5.43;1.33;;;7.60;99.90;;;7.09;100.00;96204.66;4974718;28;20486;-37
2023/03/26 06:32:37;;;;;;;3.92;1.13;;;7.70;99.90;;;7.16;100.00;96208.72;4966885;28;20034;-37
2023/03/26 06:35:04;;;;;;;6.95;1.55;;;7.70;99.90;;;7.23;100.00;96206.66;4969546;28;20493;-37
2023/03/26 06:37:29;;;;;;;2.70;1.33;;;7.80;99.90;;;7.26;100.00;96206.56;4971777;28;20104;-37
2023/03/26 06:39:55;;;;;;;3.85;1.10;;;7.90;99.90;;;7.33;100.00;96209.78;4973238;28;20034;-36
2023/03/26 06:42:21;;;;;;;6.68;1.13;;;7.90;99.90;;;7.37;100.00;96206.94;4977683;28;20114;-37
2023/03/26 06:44:46;;;;;;;5.28;1.13;;;8.00;99.90;;;7.37;100.00;96213.97;4972413;28;20673;-36
2023/03/26 06:47:13;;;;;;;5.03;1.17;;;8.00;99.90;;;7.40;100.00;96203.34;4970149;28;20045;-36
2023/03/26 06:49:40;;;;;;;4.35;1.35;;;8.00;99.90;;;7.42;100.00;96191.00;4969051;28;20574;-36
2023/03/26 06:52:06;;;;;;;9.00;1.40;;;8.00;99.90;;;7.42;100.00;96183.13;4972107;28;20022;-36
2023/03/26 06:54:32;;;;;;;8.85;1.67;;;8.00;99.90;;;7.44;100.00;96187.38;4973593;28;20150;-36
2023/03/26 06:56:58;;;;;;;6.00;1.42;;;8.10;99.90;;;7.43;100.00;96190.94;4968181;28;20113;-36
2023/03/26 06:59:24;;;;;;;7.60;1.80;;;8.10;99.90;;;7.43;100.00;96190.94;4972082;28;20402;-36
2023/03/26 07:01:50;;;;;;;5.60;1.60;;;8.10;99.90;;;7.39;100.00;96167.53;4969893;28;20121;-36
2023/03/26 07:04:16;;;;;;;6.75;1.77;;;8.00;99.90;;;7.49;100.00;96188.97;4979717;28;20283;-36
2023/03/26 07:06:41;;;;;;;5.53;1.55;;;8.10;99.90;;;7.48;100.00;96180.22;4976707;28;20034;-36
2023/03/26 07:09:07;;;;;;;7.88;1.50;;;8.10;99.90;;;7.49;100.00;96166.22;4976174;28;20027;-36
2023/03/26 07:11:33;;;;;;;5.32;1.35;;;8.10;99.90;;;7.52;100.00;96162.59;4976463;28;20046;-36
2023/03/26 07:13:59;;;;;;;2.85;1.25;;;8.10;99.90;;;7.56;100.00;96157.16;4974976;28;20470;-36
2023/03/26 07:16:24;;;;;;;5.35;1.10;;;8.20;99.90;;;7.58;100.00;96154.47;4974869;28;20332;-36
2023/03/26 07:18:51;;;;;;;5.57;1.35;;;8.20;99.90;;;7.54;100.00;96158.16;4974440;28;20038;-36
2023/03/26 07:21:18;;;;;;;7.90;1.42;;;8.20;99.90;;;7.57;100.00;96150.13;4979359;28;20045;-36
2023/03/26 07:23:44;;;;;;;7.45;1.42;;;8.20;99.90;;;7.54;100.00;96155.53;4976640;28;20037;-37
2023/03/26 07:26:34;;;;;;;6.50;1.50;;;8.20;99.90;;;7.53;100.00;96143.31;4976383;28;20532;-36
2023/03/26 07:29:23;;;;;;;4.57;1.20;;;8.20;99.90;;;7.53;100.00;96127.56;4976368;28;20042;-37
2023/03/26 07:32:38;;;;;;;5.43;1.30;;;8.10;99.90;;;7.52;100.00;96124.09;4955740;28;20482;-36
2023/03/26 07:35:31;;;;;;;8.55;1.67;;;8.10;99.90;;;7.45;100.00;96126.16;4972645;28;20467;-35
2023/03/26 07:38:44;;;;;;;4.78;1.20;;;8.10;99.90;;;7.41;100.00;96127.22;4971140;28;20543;-36
2023/03/26 07:41:43;;;;;;;6.90;1.50;;;8.00;99.90;;;7.36;100.00;96120.47;4913063;28;20049;-36
2023/03/26 07:44:34;;;;;;;6.00;1.38;;;8.00;99.90;;;7.34;100.00;96125.78;4957589;28;20036;-36
2023/03/26 07:47:04;;;;;;;3.13;1.13;;;7.90;99.90;;;7.29;100.00;96122.50;4955965;28;20264;-36
2023/03/26 07:49:30;;;;;;;4.47;1.20;;;7.90;99.90;;;7.32;100.00;96109.28;4956742;28;20034;-36
2023/03/26 07:51:56;;;;;;;4.78;1.40;;;7.90;99.90;;;7.38;100.00;96095.88;4974473;28;20442;-36
2023/03/26 07:54:22;;;;;;;4.65;1.40;;;8.00;99.90;;;7.38;100.00;96092.41;4975871;28;20486;-36
2023/03/26 07:56:56;;;;;;;8.77;1.80;;;8.00;99.90;;;7.36;100.00;96089.84;4973404;28;20645;-36
2023/03/26 07:59:30;;;;;;;9.00;1.92;;;8.00;99.90;;;7.30;100.00;96086.63;4977088;28;20105;-36
2023/03/26 08:02:45;;;;;;;7.10;1.65;;;7.90;99.90;;;7.23;100.00;96100.03;4953660;28;20089;-37
2023/03/26 08:05:24;;;;;;;5.35;1.70;;;7.90;99.90;;;7.22;100.00;96087.84;4969375;28;20034;-36
2023/03/26 08:08:01;;;;;;;4.88;1.48;;;7.80;99.90;;;7.19;100.00;96081.88;4956572;28;20034;-36
2023/03/26 08:11:06;;;;;;;6.35;1.92;;;7.80;99.90;;;7.27;100.00;96087.66;4976592;28;20058;-37
2023/03/26 08:14:03;;;;;;;7.68;1.90;;;7.80;99.90;;;7.23;100.00;96080.81;5044815;23;20115;-39
2023/03/26 08:16:53;;;;;;;8.25;1.67;;;7.80;99.90;;;7.18;100.00;96074.94;5047699;28;20090;-40
2023/03/26 08:19:45;;;;;;;5.70;2.00;;;7.80;99.90;;;7.14;100.00;96052.38;5050830;28;20090;-40
2023/03/26 08:22:16;;;;;;;5.25;1.52;;;7.70;99.90;;;7.16;100.00;96053.16;5050826;28;20040;-40
2023/03/26 08:25:04;;;;;;;7.25;1.98;;;7.80;99.90;;;7.18;100.00;96053.97;5028045;28;20063;-41
2023/03/26 08:27:40;;;;;;;9.15;1.88;;;7.80;99.90;;;7.22;100.00;96047.66;5029767;28;20087;-41
2023/03/26 08:30:25;;;;;;;4.63;1.48;;;7.80;99.90;;;7.36;100.00;96055.75;5033212;28;20029;-41
2023/03/26 08:32:56;;;;;;;5.68;1.90;;;7.90;99.90;;;7.36;100.00;96047.03;5029406;28;20502;-41
2023/03/26 08:35:23;;;;;;;5.35;1.70;;;7.90;99.90;;;7.35;100.00;96046.16;5032496;28;20063;-40
2023/03/26 08:37:50;;;;;;;9.68;1.80;;;7.90;99.90;;;7.38;100.00;96039.94;5028683;28;20115;-39
2023/03/26 08:40:29;;;;;;;5.70;1.80;;;8.00;99.90;;;7.43;100.00;96030.94;5031849;28;20037;-39
2023/03/26 08:43:30;;;;;;;6.28;1.77;;;8.10;99.90;;;7.54;100.00;96027.81;5017047;28;20385;-39
2023/03/26 08:46:40;;;;;;;4.53;1.92;;;8.10;99.90;;;7.60;100.00;96037.19;5026482;28;20132;-40
2023/03/26 08:49:40;;;;;;;7.38;2.05;;;8.20;99.90;;;7.55;100.00;96026.03;5011047;28;20123;-40
2023/03/26 08:52:30;;;;;;;6.63;1.60;;;8.20;99.90;;;7.69;100.00;96022.78;5028534;28;20029;-40
2023/03/26 08:55:25;;;;;;;5.97;2.00;;;8.30;99.90;;;7.88;100.00;96023.59;5027121;28;20033;-39
2023/03/26 08:58:10;;;;;;;6.22;1.77;;;8.50;99.90;;;8.01;100.00;96024.69;5022612;28;20320;-39
2023/03/26 09:00:57;;;;;;;9.50;1.75;;;8.60;99.90;;;8.14;100.00;96027.56;5028532;28;20112;-38
2023/03/26 09:03:54;;;;;;;7.65;1.98;;;8.70;99.90;;;8.32;100.00;96017.91;5027444;28;20100;-39
2023/03/26 09:06:43;;;;;;;7.95;1.63;;;8.90;99.90;;;8.46;100.00;96014.66;5027187;28;20117;-39
2023/03/26 09:10:02;;;;;;;5.30;1.67;;;9.10;99.90;;;8.78;100.00;96012.16;5036019;28;20029;-39
2023/03/26 09:12:56;;;;;;;7.45;1.85;;;9.30;99.90;;;9.17;100.00;96014.47;5026218;28;20045;-39
2023/03/26 09:15:44;;;;;;;6.38;1.90;;;9.80;99.90;;;9.32;100.00;96028.56;5028159;28;20072;-40
2023/03/26 09:18:47;;;;;;;6.03;1.67;;;10.00;99.90;;;9.68;100.00;96031.91;5049139;28;20037;-39
2023/03/26 09:21:28;;;;;;;;;;;10.30;99.90;;;9.84;100.00;96024.84;5030909;28;20522;-39
2023/03/26 09:24:37;;;;;;;6.38;2.30;;;10.40;99.90;;;9.96;100.00;96025.97;5030683;28;20474;-39
2023/03/26 09:27:37;;;;;;;3.08;1.10;;;10.60;99.90;;;9.86;100.00;96008.97;5027627;28;20506;-39
2023/03/26 09:30:50;;;;;;;2.55;1.00;;;10.70;99.90;;;9.81;100.00;96037.34;5030145;28;20029;-39
2023/03/26 09:33:55;;;;;;;2.25;0.90;;;10.50;99.90;;;9.94;100.00;96031.31;5024852;28;20231;-40
2023/03/26 09:36:37;;;;;;;5.40;1.10;;;10.60;99.90;;;10.17;100.00;96025.66;5029884;28;20032;-40
2023/03/26 09:39:15;;;;;;;;;;;10.80;99.90;;;10.36;100.00;96036.88;5039876;28;20082;-39
2023/03/26 09:42:16;;;;;;;1.23;0.68;;;10.90;99.90;;;10.62;100.00;96024.81;5023937;28;19917;-40
2023/03/26 09:45:07;;;;;;;4.90;1.05;;;11.10;99.90;;;10.89;100.00;96010.91;5034274;28;20033;-39
2023/03/26 09:47:45;;;;;;;5.07;1.10;;;11.50;99.90;;;11.25;100.00;96026.31;5023505;28;20405;-39
2023/03/26 09:50:36;;;;;;;3.80;1.20;;;11.80;99.90;;;11.74;100.00;96024.19;5023739;28;20103;-39
2023/03/26 09:53:46;;;;;;;3.25;0.95;;;12.30;99.90;;;11.82;100.00;96022.72;5034109;28;20037;-40
2023/03/26 09:56:51;;;;;;;2.75;0.93;;;12.50;99.90;;;11.94;100.00;96026.41;5025542;28;20040;-39
2023/03/26 09:59:53;;;;;;;1.70;0.70;;;12.60;99.90;;;12.02;100.00;96003.00;5031249;28;20564;-40
2023/03/26 10:02:38;;;;;;;2.47;0.80;;;12.70;99.90;;;12.28;100.00;96024.22;5033976;28;20067;-40
2023/03/26 10:05:34;;;;;;;2.92;1.00;;;12.90;99.90;;;12.27;100.00;96016.41;5021795;28;20045;-40
2023/03/26 10:08:22;;;;;;;2.35;0.80;;;13.00;99.90;;;12.46;100.00;96016.03;5035173;28;20036;-40
2023/03/26 10:11:44;;;;;;;2.40;0.80;;;13.10;99.90;;;12.38;100.00;96009.47;5033137;28;21083;-41
2023/03/26 10:14:58;;;;;;;2.15;1.10;;;13.00;99.90;;;12.20;100.00;96005.38;5009474;28;20116;-41
2023/03/26 10:17:37;;;;;;;2.65;0.73;;;12.90;99.90;;;11.79;100.00;96011.50;5031046;28;20025;-40
2023/03/26 10:20:52;;;;;;;1.40;0.85;;;12.50;99.90;;;11.28;100.00;96010.25;5033872;28;20041;-41
2023/03/26 10:23:58;;;;;;;2.47;0.80;;;12.00;99.90;;;10.71;100.00;96004.94;5029317;28;20065;-40
2023/03/26 10:26:57;;;;;;;3.60;0.90;;;11.40;99.90;;;10.53;100.00;96012.16;5013299;28;20479;-40
2023/03/26 10:30:35;;;;;;;2.28;0.98;;;11.10;99.90;;;10.38;100.00;95984.09;5028595;28;20021;-40
2023/03/26 10:33:18;;;;;;;2.22;0.80;;;11.10;99.90;;;10.60;100.00;95989.78;4969126;28;20038;-41
2023/03/26 10:36:20;;;;;;;1.52;0.80;;;11.20;99.90;;;10.84;100.00;95984.84;5027302;28;20043;-40
2023/03/26 10:39:04;;;;;;;3.17;0.87;;;11.40;99.90;;;11.14;100.00;96001.50;5029318;28;20679;-40
2023/03/26 10:41:52;;;;;;;2.15;0.68;;;11.80;99.90;;;11.20;91.42;95977.41;5027707;28;20030;-41
2023/03/26 10:45:23;;;;;;;2.47;0.80;;;12.00;99.90;;;11.41;92.87;95986.63;5030308;28;20306;-40
2023/03/26 10:47:57;;;;;;;1.52;0.70;;;12.10;99.90;;;11.63;94.53;95991.38;5035234;28;20094;-39
2023/03/26 10:51:07;;;;;;;1.27;0.55;;;12.20;99.90;;;12.00;85.92;95999.59;5030458;28;20048;-39
2023/03/26 10:53:53;;;;;;;2.30;0.73;;;12.60;99.90;;;12.23;75.55;96010.47;5036057;28;20051;-40
2023/03/26 10:56:28;;;;;;;1.17;0.60;;;12.90;99.90;;;12.57;80.09;96009.06;5025408;28;20090;-39
2023/03/26 10:58:55;;;;;;;2.58;0.60;;;13.20;99.90;;;12.61;72.08;96025.56;5022653;28;20048;-39
2023/03/26 11:01:44;;;;;;;1.55;0.60;;;13.30;99.90;;;12.47;70.39;96012.44;5034511;28;20032;-39
2023/03/26 11:04:21;;;;;;;4.85;0.57;;;13.20;99.90;;;12.31;65.86;96010.81;5028366;28;20032;-39